Time;durP1;ratioP1;P1;durP2;ratioP2;P2;SDS_P1;SDS_P2;PMS_P1;PMS_P2;Temp;Humidity;BMP_temperature;BMP_pressure;BME280_temperature;BME280_humidity;BME280_pressure;Samples;Min_cycle;Max_cycle;Signal;HPM_P1;HPM_P2
2022/04/26 03:37:44;;;;;;;29.53;19.03;;;7.20;99.90;;;;;;5112389;28;20613;-45
2022/04/26 03:40:11;;;;;;;34.67;20.90;;;7.30;99.90;;;;;;5112180;28;20437;-45
2022/04/26 03:42:38;;;;;;;29.73;19.80;;;7.20;99.90;;;;;;5112234;28;20460;-45
2022/04/26 03:45:05;;;;;;;26.67;17.60;;;7.20;99.90;;;;;;5112200;28;20441;-45
2022/04/26 03:47:32;;;;;;;27.77;18.20;;;7.20;99.90;;;;;;5112289;28;20430;-45
2022/04/26 03:50:00;;;;;;;38.40;19.30;;;7.40;99.90;;;;;;5111900;28;20434;-45
2022/04/26 03:52:27;;;;;;;33.30;17.37;;;7.50;99.90;;;;;;5112485;28;20816;-45
2022/04/26 03:54:53;;;;;;;25.73;17.27;;;7.50;99.90;;;;;;5112657;28;20545;-45
2022/04/26 03:57:20;;;;;;;26.73;16.20;;;7.50;99.90;;;;;;5112439;28;20438;-45
2022/04/26 03:59:47;;;;;;;27.33;17.70;;;7.50;99.90;;;;;;5111889;28;20431;-45
2022/04/26 04:02:13;;;;;;;22.90;15.67;;;7.40;99.90;;;;;;5133719;22;20498;-50
2022/04/26 04:04:40;;;;;;;23.63;15.73;;;7.40;99.90;;;;;;5110957;28;20455;-51
2022/04/26 04:07:08;;;;;;;20.17;13.87;;;7.60;99.90;;;;;;5093406;28;21011;-51
2022/04/26 04:09:35;;;;;;;19.97;14.83;;;7.40;99.90;;;;;;5111289;28;20427;-50
2022/04/26 04:12:03;;;;;;;20.73;14.03;;;7.70;99.90;;;;;;5111674;28;20449;-51
2022/04/26 04:14:31;;;;;;;24.53;15.93;;;7.40;99.90;;;;;;5091013;28;20426;-50
2022/04/26 04:16:58;;;;;;;24.90;14.77;;;7.60;99.90;;;;;;5091196;28;20427;-51
2022/04/26 04:19:27;;;;;;;19.93;15.50;;;7.50;99.90;;;;;;5090895;28;20622;-51
2022/04/26 04:21:53;;;;;;;22.43;13.90;;;7.40;99.90;;;;;;5073104;28;20870;-51
2022/04/26 04:24:22;;;;;;;23.33;15.50;;;7.50;99.90;;;;;;5091129;28;20543;-50
2022/04/26 04:26:48;;;;;;;21.63;12.83;;;7.80;99.90;;;;;;5072741;28;20500;-51
2022/04/26 04:29:15;;;;;;;25.73;14.33;;;7.80;99.90;;;;;;5090514;28;20435;-51
2022/04/26 04:31:42;;;;;;;21.90;14.67;;;8.20;99.90;;;;;;5090961;28;20930;-51
2022/04/26 04:34:09;;;;;;;20.63;13.73;;;7.90;99.90;;;;;;5090744;28;20458;-54
2022/04/26 04:36:36;;;;;;;19.97;13.80;;;8.10;99.90;;;;;;5094508;28;20431;-51
2022/04/26 04:39:03;;;;;;;20.77;14.40;;;7.90;99.90;;;;;;5093973;28;20956;-50
2022/04/26 04:41:35;;;;;;;23.17;15.00;;;8.60;99.90;;;;;;5094434;28;20409;-51
2022/04/26 04:44:04;;;;;;;21.30;14.67;;;8.10;99.90;;;;;;5094078;28;20538;-51
2022/04/26 04:46:31;;;;;;;22.27;14.63;;;8.10;99.90;;;;;;5076309;28;20458;-51
2022/04/26 04:48:57;;;;;;;18.90;13.33;;;8.00;99.90;;;;;;5094081;28;20431;-51
2022/04/26 04:51:24;;;;;;;21.80;12.77;;;8.40;99.90;;;;;;5076072;28;20447;-50
2022/04/26 04:53:51;;;;;;;20.23;13.97;;;8.30;99.90;;;;;;5094401;28;20496;-50
2022/04/26 04:56:18;;;;;;;22.60;12.93;;;8.80;99.90;;;;;;5094365;28;20431;-50
2022/04/26 04:58:46;;;;;;;19.80;13.87;;;8.40;99.90;;;;;;5093830;28;20473;-50
2022/04/26 05:01:13;;;;;;;25.03;14.73;;;8.20;99.90;;;;;;5094201;28;20519;-49
2022/04/26 05:03:39;;;;;;;19.73;12.93;;;8.30;99.90;;;;;;5094168;28;20475;-50
2022/04/26 05:06:06;;;;;;;17.80;11.97;;;8.60;99.90;;;;;;5094022;28;20425;-50
2022/04/26 05:08:33;;;;;;;18.57;13.90;;;8.10;99.90;;;;;;5093565;28;20535;-51
2022/04/26 05:11:00;;;;;;;22.10;14.30;;;8.90;99.90;;;;;;5093788;28;20459;-51
2022/04/26 05:13:27;;;;;;;26.77;14.10;;;9.30;99.90;;;;;;5094034;28;20818;-51
2022/04/26 05:15:55;;;;;;;17.10;12.97;;;8.80;99.90;;;;;;5093732;28;20441;-51
2022/04/26 05:18:21;;;;;;;21.83;12.80;;;9.10;99.90;;;;;;5093546;28;20468;-50
2022/04/26 05:20:48;;;;;;;23.93;14.07;;;9.50;99.90;;;;;;5093395;28;20439;-52
2022/04/26 05:25:59;;;;;;;28.47;14.20;;;9.30;99.90;;;;;;5093345;28;20517;-50
2022/04/26 05:28:26;;;;;;;15.33;12.13;;;9.80;99.90;;;;;;5093418;28;20444;-50
2022/04/26 05:30:54;;;;;;;17.40;12.60;;;9.80;99.90;;;;;;5093473;28;20424;-51
2022/04/26 05:33:21;;;;;;;18.40;12.00;;;9.90;99.90;;;;;;5093161;28;20837;-51
2022/04/26 05:35:48;;;;;;;15.70;12.80;;;9.90;99.90;;;;;;5093300;28;20514;-51
2022/04/26 05:38:15;;;;;;;20.67;12.93;;;10.00;99.90;;;;;;5092753;28;20582;-51
2022/04/26 05:40:42;;;;;;;26.30;13.50;;;10.10;99.90;;;;;;5092557;28;20724;-51
2022/04/26 05:43:09;;;;;;;22.00;13.10;;;9.90;99.90;;;;;;5092451;28;20459;-51
2022/04/26 05:45:36;;;;;;;16.80;11.23;;;10.00;99.90;;;;;;5091944;28;20429;-51
2022/04/26 05:48:05;;;;;;;16.80;11.70;;;10.10;99.90;;;;;;5091657;28;20433;-51
2022/04/26 05:50:32;;;;;;;14.43;10.80;;;10.10;99.90;;;;;;5091991;28;20436;-50
2022/04/26 05:52:58;;;;;;;26.20;12.07;;;10.60;99.90;;;;;;5092787;28;20449;-51
2022/04/26 05:55:25;;;;;;;23.27;11.90;;;10.40;99.90;;;;;;5092770;28;20950;-51
2022/04/26 05:57:52;;;;;;;16.97;11.30;;;10.40;99.90;;;;;;5092413;28;20443;-52
2022/04/26 06:00:19;;;;;;;20.90;12.70;;;10.50;99.90;;;;;;5092160;28;20425;-51
2022/04/26 06:02:46;;;;;;;13.20;9.97;;;10.40;99.90;;;;;;5074164;28;20587;-52
2022/04/26 06:05:14;;;;;;;15.67;10.17;;;11.20;99.90;;;;;;5092635;28;20839;-52
2022/04/26 06:07:40;;;;;;;13.60;9.73;;;10.90;99.90;;;;;;5074542;28;20456;-52
2022/04/26 06:10:07;;;;;;;12.90;8.90;;;10.70;99.90;;;;;;5092071;28;20431;-51
2022/04/26 06:12:35;;;;;;;15.90;9.63;;;10.80;99.90;;;;;;5074535;28;20881;-51
2022/04/26 06:15:02;;;;;;;15.03;8.07;;;10.90;99.90;;;;;;5092649;28;20439;-52
2022/04/26 06:17:31;;;;;;;12.47;8.67;;;10.90;99.90;;;;;;5092430;28;20428;-52
2022/04/26 06:19:58;;;;;;;11.10;7.30;;;11.20;99.60;;;;;;5092130;28;20465;-52
2022/04/26 06:22:26;;;;;;;9.43;7.27;;;11.00;99.00;;;;;;5092318;28;20448;-51
2022/04/26 06:24:54;;;;;;;11.70;8.50;;;11.10;98.40;;;;;;5091966;28;20799;-51
2022/04/26 06:27:21;;;;;;;8.07;5.77;;;11.00;97.50;;;;;;5073867;28;20445;-52
2022/04/26 06:29:50;;;;;;;11.90;7.60;;;11.70;97.00;;;;;;5091627;28;20425;-51
2022/04/26 06:32:16;;;;;;;9.80;7.00;;;11.70;96.90;;;;;;5091719;28;20430;-52
2022/04/26 06:34:43;;;;;;;8.90;6.43;;;12.40;96.20;;;;;;5091732;28;20437;-51
2022/04/26 06:37:09;;;;;;;8.07;5.60;;;11.80;95.50;;;;;;5091756;28;20429;-51
2022/04/26 06:39:37;;;;;;;8.30;5.93;;;11.80;94.70;;;;;;5091755;28;20846;-51
2022/04/26 06:42:04;;;;;;;7.27;5.73;;;11.80;94.80;;;;;;5091809;28;20427;-52
2022/04/26 06:44:31;;;;;;;7.27;5.80;;;11.90;93.80;;;;;;5073637;28;21036;-51
2022/04/26 06:46:58;;;;;;;6.67;5.47;;;11.80;93.00;;;;;;5091729;28;20936;-53
2022/04/26 06:49:25;;;;;;;6.70;5.17;;;11.90;93.20;;;;;;5091194;28;20452;-50
2022/04/26 06:51:51;;;;;;;6.20;4.90;;;12.10;93.00;;;;;;5091244;28;20434;-52
2022/04/26 06:54:18;;;;;;;6.83;5.07;;;12.30;92.40;;;;;;5091750;28;20453;-51
2022/04/26 06:56:46;;;;;;;9.10;6.27;;;11.90;91.60;;;;;;5091563;28;20426;-53
2022/04/26 06:59:13;;;;;;;7.27;4.20;;;12.20;91.20;;;;;;5091266;28;20534;-51
2022/04/26 07:01:40;;;;;;;7.90;4.70;;;12.40;91.10;;;;;;5090706;28;20610;-51
2022/04/26 07:04:07;;;;;;;8.13;3.80;;;12.20;90.40;;;;;;5091487;28;20475;-51
2022/04/26 07:06:33;;;;;;;10.03;4.20;;;12.80;90.40;;;;;;5091947;28;20931;-52
2022/04/26 07:09:01;;;;;;;5.23;4.07;;;12.50;89.10;;;;;;5091289;28;20520;-52
2022/04/26 07:11:28;;;;;;;7.00;4.37;;;12.30;88.40;;;;;;5091143;28;20431;-51
2022/04/26 07:13:57;;;;;;;6.37;4.43;;;12.10;87.70;;;;;;5091159;28;20453;-52
2022/04/26 07:16:24;;;;;;;5.90;4.33;;;12.40;87.40;;;;;;5090772;28;20490;-52
2022/04/26 07:18:50;;;;;;;7.72;3.97;;;12.90;87.00;;;;;;5090577;28;20444;-52
2022/04/26 07:21:18;;;;;;;7.10;4.40;;;12.00;84.00;;;;;;5091388;28;20218;-52
2022/04/26 07:23:44;;;;;;;4.90;3.87;;;12.70;84.40;;;;;;5091118;28;20531;-52
2022/04/26 07:26:11;;;;;;;9.90;5.80;;;13.00;85.40;;;;;;5090654;28;20432;-52
2022/04/26 07:28:37;;;;;;;5.63;4.37;;;12.70;85.20;;;;;;5072201;28;20546;-51
2022/04/26 07:31:05;;;;;;;4.97;4.30;;;12.40;83.80;;;;;;5090655;28;20429;-51
2022/04/26 07:36:16;;;;;;;5.50;2.97;;;12.60;82.80;;;;;;5091027;28;20435;-53
2022/04/26 07:38:43;;;;;;;9.20;3.70;;;12.60;82.70;;;;;;5090297;28;20602;-51
2022/04/26 07:41:11;;;;;;;10.87;4.30;;;12.60;82.40;;;;;;5092019;28;20447;-52
2022/04/26 07:43:38;;;;;;;6.90;2.90;;;12.90;82.40;;;;;;5090531;28;20554;-52
2022/04/26 07:46:06;;;;;;;8.67;3.23;;;12.90;80.90;;;;;;5090689;28;20542;-52
2022/04/26 07:48:34;;;;;;;5.23;3.47;;;12.70;78.80;;;;;;5090644;28;20441;-51
2022/04/26 07:51:01;;;;;;;4.87;3.80;;;12.90;78.70;;;;;;5090513;28;20450;-51
2022/04/26 07:53:27;;;;;;;5.00;3.17;;;12.50;77.40;;;;;;5090953;28;20978;-51
2022/04/26 07:55:54;;;;;;;5.20;3.20;;;13.00;78.70;;;;;;5072690;28;20540;-51
2022/04/26 07:58:20;;;;;;;4.23;3.00;;;13.10;77.40;;;;;;5090553;28;20497;-52
2022/04/26 08:00:47;;;;;;;4.00;2.53;;;12.70;74.30;;;;;;5090835;28;20489;-51
2022/04/26 08:03:16;;;;;;;4.10;2.80;;;12.80;71.90;;;;;;5090836;28;21016;-52
2022/04/26 08:05:43;;;;;;;3.47;2.67;;;12.50;71.30;;;;;;5091258;28;20525;-51
2022/04/26 08:08:10;;;;;;;3.13;2.23;;;12.60;71.40;;;;;;5072881;28;20449;-52
2022/04/26 08:10:37;;;;;;;5.80;2.90;;;12.40;71.00;;;;;;5093092;28;20433;-51
2022/04/26 08:13:04;;;;;;;6.67;2.93;;;12.80;70.70;;;;;;5094699;28;20459;-52
2022/04/26 08:15:31;;;;;;;4.13;2.10;;;12.80;71.00;;;;;;5094655;28;20438;-52
2022/04/26 08:17:58;;;;;;;3.67;2.40;;;12.60;69.60;;;;;;5094593;28;20443;-52
2022/04/26 08:20:26;;;;;;;3.80;2.53;;;12.90;69.00;;;;;;5093800;28;20564;-53
2022/04/26 08:22:53;;;;;;;4.20;2.50;;;12.50;68.30;;;;;;5094642;28;20457;-52
2022/04/26 08:28:04;;;;;;;4.47;2.80;;;12.90;68.50;;;;;;5094648;28;20505;-52
2022/04/26 08:30:31;;;;;;;4.27;2.30;;;12.70;67.80;;;;;;5075898;28;20437;-51
2022/04/26 08:32:58;;;;;;;3.97;2.77;;;13.20;67.70;;;;;;5094614;28;20458;-51
2022/04/26 08:35:27;;;;;;;2.50;1.67;;;12.50;65.50;;;;;;5094132;28;20926;-51
2022/04/26 08:37:54;;;;;;;3.17;1.90;;;12.80;65.00;;;;;;5094048;28;20774;-51
2022/04/26 08:40:21;;;;;;;10.83;3.60;;;12.30;64.20;;;;;;5094075;28;20483;-51
2022/04/26 08:42:50;;;;;;;4.63;2.00;;;12.90;64.10;;;;;;5094545;28;20453;-51
2022/04/26 08:45:18;;;;;;;4.80;2.13;;;12.70;63.70;;;;;;5094361;28;20458;-50
2022/04/26 08:53:17;;;;;;;4.30;2.37;;;13.20;65.00;;;;;;5094065;28;20449;-51
2022/04/26 08:55:46;;;;;;;5.80;2.40;;;12.80;65.20;;;;;;5093936;28;20753;-51
2022/04/26 08:58:14;;;;;;;4.57;2.60;;;13.00;64.90;;;;;;5093701;28;20432;-50
2022/04/26 09:00:42;;;;;;;4.13;3.20;;;13.20;66.30;;;;;;5093669;28;21067;-51
2022/04/26 09:03:11;;;;;;;5.93;2.70;;;12.90;65.60;;;;;;5093411;28;20475;-51
2022/04/26 09:05:39;;;;;;;6.53;3.35;;;13.20;66.20;;;;;;5075525;28;20453;-51
2022/04/26 09:08:20;;;;;;;4.17;2.47;;;13.30;65.70;;;;;;5094251;28;20281;-52
2022/04/26 09:10:48;;;;;;;4.67;2.60;;;13.10;65.10;;;;;;5093468;28;20539;-51
2022/04/26 09:13:17;;;;;;;4.17;2.73;;;13.30;66.20;;;;;;5093639;28;20462;-51
2022/04/26 09:15:47;;;;;;;3.67;2.50;;;12.80;65.60;;;;;;5094686;28;20435;-51
2022/04/26 09:18:17;;;;;;;5.07;2.73;;;13.40;66.30;;;;;;5094245;28;20944;-51
2022/04/26 09:20:45;;;;;;;6.50;3.30;;;13.50;66.50;;;;;;5093497;28;20484;-52
2022/04/26 09:23:16;;;;;;;4.40;3.03;;;13.00;65.60;;;;;;5093912;28;20454;-51
2022/04/26 09:25:43;;;;;;;6.70;5.00;;;13.20;66.50;;;;;;5093531;28;20440;-51
2022/04/26 09:28:19;;;;;;;6.43;2.60;;;13.40;66.30;;;;;;5095783;28;20434;-52
2022/04/26 09:30:45;;;;;;;3.60;2.57;;;13.40;66.60;;;;;;5093858;28;20884;-52
2022/04/26 09:33:30;;;;;;;3.63;2.40;;;13.30;66.70;;;;;;5093977;28;20454;-50
2022/04/26 09:36:01;;;;;;;5.70;3.00;;;13.10;66.60;;;;;;5093609;28;20450;-51
2022/04/26 09:38:31;;;;;;;7.67;2.73;;;13.50;66.20;;;;;;5092940;28;20456;-51
2022/04/26 09:41:00;;;;;;;6.60;2.90;;;14.00;67.60;;;;;;5093657;28;20472;-51
2022/04/26 09:43:28;;;;;;;5.60;3.20;;;13.50;67.40;;;;;;5093432;28;20448;-51
2022/04/26 09:45:56;;;;;;;5.10;3.30;;;13.30;67.20;;;;;;5092770;28;20960;-51
2022/04/26 09:48:27;;;;;;;9.73;3.50;;;13.90;67.90;;;;;;5092824;28;20451;-50
2022/04/26 09:50:54;;;;;;;3.80;2.80;;;13.60;67.60;;;;;;5092997;28;20443;-52
2022/04/26 09:53:22;;;;;;;8.90;3.50;;;13.60;67.90;;;;;;5093187;28;20429;-51
2022/04/26 09:55:49;;;;;;;4.23;3.00;;;13.60;67.80;;;;;;5093084;28;20438;-51
2022/04/26 09:58:19;;;;;;;2.53;2.33;;;13.60;67.60;;;;;;5092455;28;20777;-52
2022/04/26 10:00:49;;;;;;;5.13;2.90;;;14.10;68.50;;;;;;5092465;28;20524;-52
2022/04/26 10:03:21;;;;;;;4.70;3.40;;;13.40;67.20;;;;;;5120851;22;20490;-46
2022/04/26 10:05:51;;;;;;;3.80;3.40;;;13.10;66.40;;;;;;5113741;28;20439;-45
2022/04/26 10:08:19;;;;;;;5.13;3.63;;;13.70;67.50;;;;;;5113038;28;20434;-45
2022/04/26 10:10:47;;;;;;;8.93;3.33;;;13.70;67.10;;;;;;5113013;28;20424;-46
2022/04/26 10:13:33;;;;;;;4.70;3.43;;;13.60;66.80;;;;;;5112680;28;20455;-46
2022/04/26 10:16:00;;;;;;;5.47;3.73;;;13.30;66.80;;;;;;5112552;28;20477;-46
2022/04/26 10:18:31;;;;;;;8.00;3.73;;;13.90;67.50;;;;;;5112594;28;20443;-46
2022/04/26 10:20:58;;;;;;;4.67;2.90;;;13.70;67.10;;;;;;5112990;28;20486;-46
2022/04/26 10:23:25;;;;;;;6.63;3.47;;;13.90;67.00;;;;;;5113308;28;20474;-46
2022/04/26 10:26:23;;;;;;;5.33;4.20;;;13.40;66.00;;;;;;5113076;28;20435;-46
2022/04/26 10:28:51;;;;;;;6.77;3.90;;;14.00;67.10;;;;;;5092301;28;20471;-46
2022/04/26 10:31:18;;;;;;;4.47;4.07;;;14.00;67.20;;;;;;5112627;28;20431;-46
2022/04/26 10:33:46;;;;;;;4.37;3.97;;;14.00;66.90;;;;;;5112082;28;20451;-46
2022/04/26 10:36:33;;;;;;;5.47;3.50;;;14.00;66.90;;;;;;5112675;28;20526;-46
2022/04/26 10:39:26;;;;;;;5.60;3.37;;;14.00;66.50;;;;;;5112684;28;20428;-46
2022/04/26 10:41:55;;;;;;;5.10;3.40;;;14.10;67.10;;;;;;5112467;28;20431;-44
2022/04/26 10:44:40;;;;;;;3.73;3.33;;;14.60;67.70;;;;;;5112299;28;20821;-46
2022/04/26 10:47:28;;;;;;;10.83;4.20;;;14.70;68.10;;;;;;5112511;28;20434;-45
2022/04/26 10:49:58;;;;;;;5.30;3.70;;;14.50;67.50;;;;;;5112321;28;20849;-46
2022/04/26 10:52:43;;;;;;;3.30;3.00;;;14.20;65.60;;;;;;5112086;28;20916;-46
2022/04/26 10:55:14;;;;;;;6.83;4.00;;;14.20;66.10;;;;;;5112665;28;20450;-46
2022/04/26 10:57:48;;;;;;;4.00;3.60;;;14.30;65.60;;;;;;5112297;28;20435;-44
2022/04/26 11:00:18;;;;;;;9.60;3.70;;;14.70;66.20;;;;;;5112267;28;20535;-47
2022/04/26 11:02:47;;;;;;;4.80;4.27;;;14.40;65.90;;;;;;5112157;28;20428;-46
2022/04/26 11:05:16;;;;;;;3.33;3.03;;;14.00;65.30;;;;;;5112795;28;20721;-45
2022/04/26 11:07:44;;;;;;;6.53;3.53;;;15.00;64.50;;;;;;5112393;28;20861;-45
2022/04/26 11:10:13;;;;;;;3.80;3.13;;;14.60;62.80;;;;;;5111923;28;20439;-46
2022/04/26 11:12:43;;;;;;;5.53;2.67;;;14.50;62.80;;;;;;5112052;28;20511;-45
2022/04/26 11:15:12;;;;;;;4.90;3.03;;;14.40;62.20;;;;;;5112273;28;20432;-45
2022/04/26 11:17:40;;;;;;;3.30;2.90;;;14.60;62.50;;;;;;5112437;28;20491;-45
2022/04/26 11:20:12;;;;;;;4.40;2.70;;;14.50;62.80;;;;;;5111955;28;20473;-45
2022/04/26 11:22:45;;;;;;;3.70;3.27;;;14.80;62.90;;;;;;5111627;28;20430;-45
2022/04/26 11:28:02;;;;;;;5.70;3.10;;;14.80;63.10;;;;;;5112470;28;20440;-45
2022/04/26 11:30:31;;;;;;;5.07;3.60;;;14.40;62.10;;;;;;5111656;28;20802;-46
2022/04/26 11:32:58;;;;;;;5.03;3.97;;;15.10;63.40;;;;;;5112082;28;20452;-45
2022/04/26 11:35:25;;;;;;;3.63;3.33;;;15.00;63.10;;;;;;5111747;28;20428;-45
2022/04/26 11:37:53;;;;;;;6.60;3.40;;;14.90;62.80;;;;;;5093410;28;20451;-45
2022/04/26 11:40:28;;;;;;;4.93;3.20;;;14.60;62.40;;;;;;5111356;28;20636;-46
2022/04/26 11:42:56;;;;;;;4.83;3.53;;;14.60;62.30;;;;;;5111462;28;20457;-45
2022/04/26 11:45:28;;;;;;;4.23;3.37;;;14.70;62.10;;;;;;5115378;28;20438;-45
2022/04/26 11:47:56;;;;;;;4.00;3.60;;;14.70;61.70;;;;;;5116048;28;20798;-46
2022/04/26 11:50:25;;;;;;;4.40;3.20;;;14.90;61.90;;;;;;5115571;28;20433;-46
2022/04/26 11:52:53;;;;;;;6.90;3.67;;;14.80;62.20;;;;;;5097348;28;20459;-45
2022/04/26 11:55:25;;;;;;;4.53;3.33;;;14.80;61.90;;;;;;5116301;28;20432;-45
2022/04/26 11:57:53;;;;;;;3.47;3.17;;;14.30;60.80;;;;;;5116260;28;20530;-46
2022/04/26 12:00:21;;;;;;;3.70;3.20;;;15.00;59.80;;;;;;5115305;28;20463;-45
2022/04/26 12:02:50;;;;;;;4.53;3.37;;;15.10;59.50;;;;;;5115368;28;20462;-45
2022/04/26 12:05:21;;;;;;;2.77;2.53;;;15.00;59.80;;;;;;5116303;28;20455;-46
2022/04/26 12:07:49;;;;;;;2.70;2.40;;;15.10;60.00;;;;;;5115594;28;20920;-45
2022/04/26 12:10:27;;;;;;;6.57;3.13;;;15.40;60.10;;;;;;5114932;28;20439;-45
2022/04/26 12:12:55;;;;;;;6.23;3.33;;;14.70;59.40;;;;;;5115593;28;20784;-45
2022/04/26 12:15:25;;;;;;;7.73;3.40;;;14.80;59.60;;;;;;5115343;28;20432;-45
2022/04/26 12:18:04;;;;;;;5.80;3.30;;;15.30;59.00;;;;;;5115628;28;20797;-46
2022/04/26 12:20:32;;;;;;;5.63;3.67;;;15.10;58.80;;;;;;5115183;28;20471;-45
2022/04/26 12:22:58;;;;;;;7.10;3.30;;;15.70;59.20;;;;;;5115526;28;20463;-46
2022/04/26 12:25:25;;;;;;;5.00;3.00;;;15.90;59.00;;;;;;5115183;28;20458;-46
2022/04/26 12:28:02;;;;;;;4.50;3.35;;;15.40;58.40;;;;;;5114658;28;20887;-46
2022/04/26 12:30:29;;;;;;;4.90;3.50;;;16.00;57.80;;;;;;5114833;28;20272;-46
2022/04/26 12:32:56;;;;;;;5.27;3.47;;;15.60;57.60;;;;;;5114972;28;20470;-46
2022/04/26 12:35:24;;;;;;;5.37;3.40;;;15.70;58.10;;;;;;5096493;28;20816;-46
2022/04/26 12:38:07;;;;;;;4.37;3.67;;;15.50;57.80;;;;;;5115189;28;20432;-46
2022/04/26 12:40:34;;;;;;;4.57;3.70;;;15.60;57.20;;;;;;5114868;28;20476;-46
2022/04/26 12:43:01;;;;;;;3.10;2.80;;;15.50;58.10;;;;;;5114592;28;20443;-46
2022/04/26 12:45:27;;;;;;;4.00;3.00;;;15.90;57.00;;;;;;5114613;28;20506;-44
2022/04/26 12:50:52;;;;;;;4.00;2.83;;;15.50;56.00;;;;;;5114453;28;20485;-45
2022/04/26 12:53:24;;;;;;;4.07;2.70;;;15.50;56.00;;;;;;5114758;28;20540;-45
2022/04/26 12:55:52;;;;;;;4.07;2.93;;;15.50;55.10;;;;;;5113475;28;20436;-46
2022/04/26 12:58:19;;;;;;;3.83;3.10;;;15.40;53.70;;;;;;5114757;28;20908;-45
2022/04/26 13:00:50;;;;;;;3.33;3.03;;;15.70;53.70;;;;;;5113368;28;20475;-45
2022/04/26 13:03:17;;;;;;;4.17;2.90;;;15.70;53.60;;;;;;5114610;28;20495;-45
2022/04/26 13:05:47;;;;;;;4.07;2.47;;;15.90;54.00;;;;;;5114768;28;20436;-46
2022/04/26 13:08:16;;;;;;;4.03;2.23;;;16.10;54.50;;;;;;5114395;28;20889;-47
2022/04/26 13:10:44;;;;;;;6.30;2.90;;;16.10;54.80;;;;;;5114216;28;20443;-46
2022/04/26 13:13:12;;;;;;;5.07;2.70;;;16.00;54.70;;;;;;5114532;28;20451;-46
2022/04/26 13:15:41;;;;;;;3.23;2.60;;;15.80;54.60;;;;;;5114432;28;20431;-46
2022/04/26 13:18:08;;;;;;;4.17;2.53;;;16.10;54.90;;;;;;5114700;28;20481;-46
2022/04/26 13:20:36;;;;;;;5.13;2.20;;;15.80;54.30;;;;;;5113732;28;20469;-46
2022/04/26 13:23:03;;;;;;;4.33;2.83;;;16.00;54.90;;;;;;5114113;28;20471;-46
2022/04/26 13:25:31;;;;;;;3.23;2.63;;;16.00;54.20;;;;;;5113923;28;20455;-45
2022/04/26 13:27:59;;;;;;;4.23;2.00;;;16.10;53.90;;;;;;5114213;28;20431;-46
2022/04/26 13:30:25;;;;;;;3.57;2.60;;;16.10;54.10;;;;;;5095384;28;20478;-47
2022/04/26 13:32:53;;;;;;;2.97;2.67;;;16.00;54.80;;;;;;5114501;28;20445;-45
2022/04/26 13:35:20;;;;;;;4.47;3.00;;;16.20;55.10;;;;;;5113920;28;20478;-46
2022/04/26 13:37:46;;;;;;;6.03;3.50;;;15.80;54.70;;;;;;5113648;28;20740;-47
2022/04/26 13:40:13;;;;;;;3.67;2.80;;;15.40;54.40;;;;;;5113794;28;20446;-45
2022/04/26 13:42:41;;;;;;;2.57;2.37;;;16.50;55.00;;;;;;5114120;28;20920;-45
2022/04/26 13:45:09;;;;;;;9.63;2.87;;;16.30;54.60;;;;;;5113964;28;20507;-48
2022/04/26 13:47:36;;;;;;;5.90;2.83;;;15.80;54.30;;;;;;5113575;28;20435;-46
2022/04/26 13:50:05;;;;;;;6.40;5.00;;;16.00;54.10;;;;;;5113195;28;20443;-45
2022/04/26 13:52:31;;;;;;;3.30;2.83;;;15.70;53.50;;;;;;5113720;28;21202;-46
2022/04/26 13:54:58;;;;;;;3.80;2.80;;;15.80;53.30;;;;;;5114140;28;20450;-47
2022/04/26 13:57:25;;;;;;;2.73;2.30;;;16.10;53.40;;;;;;5113933;28;20434;-47
2022/04/26 13:59:53;;;;;;;4.43;2.40;;;15.80;52.90;;;;;;5112989;28;20429;-47
2022/04/26 14:02:19;;;;;;;3.07;2.40;;;15.90;52.80;;;;;;5112756;28;20476;-47
2022/04/26 14:04:47;;;;;;;2.47;2.27;;;16.30;53.20;;;;;;5112901;28;20463;-47
2022/04/26 14:07:14;;;;;;;5.03;2.90;;;15.60;52.80;;;;;;5111181;28;20436;-46
2022/04/26 14:09:40;;;;;;;3.33;2.30;;;15.90;53.10;;;;;;5112252;28;20797;-46
2022/04/26 14:12:08;;;;;;;4.60;3.40;;;16.20;52.90;;;;;;5113326;28;20467;-47
2022/04/26 14:22:51;;;;;;;4.50;3.27;;;15.90;52.40;;;;;;5113410;28;20887;-48
2022/04/26 14:25:17;;;;;;;4.20;3.07;;;15.80;52.30;;;;;;5113041;28;20447;-46
2022/04/26 14:27:45;;;;;;;2.77;2.30;;;15.80;52.10;;;;;;5112816;28;20908;-47
2022/04/26 14:30:13;;;;;;;4.50;2.50;;;16.00;52.30;;;;;;5112778;28;20489;-46
2022/04/26 14:32:43;;;;;;;5.27;2.10;;;16.10;52.10;;;;;;5094434;28;20458;-48
2022/04/26 14:35:11;;;;;;;3.90;2.20;;;15.90;51.70;;;;;;5112940;28;20586;-45
2022/04/26 14:37:38;;;;;;;2.33;2.13;;;15.90;51.50;;;;;;5112286;28;20516;-45
2022/04/26 14:40:05;;;;;;;5.47;2.73;;;16.00;51.20;;;;;;5112629;28;20435;-46
2022/04/26 14:42:32;;;;;;;2.63;2.30;;;16.00;51.00;;;;;;5113235;28;20481;-45
2022/04/26 14:44:59;;;;;;;3.00;2.73;;;16.10;50.80;;;;;;5112996;28;20424;-47
2022/04/26 14:47:27;;;;;;;2.47;2.10;;;16.10;50.70;;;;;;5112606;28;20436;-46
2022/04/26 14:49:57;;;;;;;2.60;2.10;;;16.30;51.00;;;;;;5112558;28;20486;-46
2022/04/26 14:52:24;;;;;;;4.70;2.40;;;16.30;51.00;;;;;;5112951;28;20424;-45
2022/04/26 14:54:50;;;;;;;5.40;2.20;;;15.90;50.00;;;;;;5094141;28;20457;-46
2022/04/26 14:57:18;;;;;;;3.03;2.23;;;16.20;50.20;;;;;;5112797;28;20432;-46
2022/04/26 14:59:47;;;;;;;4.20;3.40;;;16.10;49.90;;;;;;5112240;28;20876;-46
2022/04/26 15:02:14;;;;;;;2.27;2.07;;;16.30;49.60;;;;;;5112011;28;20238;-45
2022/04/26 15:04:41;;;;;;;3.00;2.10;;;16.30;49.50;;;;;;5111986;28;20468;-45
2022/04/26 15:07:08;;;;;;;3.30;2.00;;;15.90;49.10;;;;;;5112481;28;20821;-47
2022/04/26 15:09:43;;;;;;;4.93;2.17;;;15.70;48.90;;;;;;5112142;28;20430;-46
2022/04/26 15:17:40;;;;;;;3.37;1.93;;;16.40;49.30;;;;;;5112518;28;20432;-47
2022/04/26 15:20:08;;;;;;;4.80;2.33;;;16.60;49.00;;;;;;5111081;28;20537;-46
2022/04/26 15:22:37;;;;;;;2.53;2.30;;;16.40;48.80;;;;;;5111325;28;20515;-45
2022/04/26 15:25:06;;;;;;;3.50;2.00;;;16.60;49.00;;;;;;5112316;28;20535;-46
2022/04/26 15:27:34;;;;;;;3.50;2.40;;;16.60;49.30;;;;;;5111955;28;20543;-46
2022/04/26 15:30:00;;;;;;;5.17;2.07;;;16.70;49.60;;;;;;5111511;28;20437;-46
2022/04/26 15:32:27;;;;;;;2.67;1.90;;;16.60;49.70;;;;;;5093441;28;20449;-45
2022/04/26 15:34:54;;;;;;;3.03;2.33;;;16.70;49.90;;;;;;5112196;28;20507;-46
2022/04/26 15:37:21;;;;;;;4.93;2.77;;;16.90;50.30;;;;;;5112448;28;20497;-45
2022/04/26 15:39:49;;;;;;;6.50;2.10;;;16.50;50.00;;;;;;5111551;28;20473;-45
2022/04/26 15:42:17;;;;;;;3.23;2.93;;;16.70;50.40;;;;;;5111619;28;20480;-47
2022/04/26 15:44:44;;;;;;;4.53;2.30;;;16.70;50.30;;;;;;5111126;28;20551;-47
2022/04/26 15:47:11;;;;;;;4.93;2.57;;;16.50;50.30;;;;;;5111609;28;20430;-46
2022/04/26 15:49:37;;;;;;;3.30;2.73;;;16.60;50.20;;;;;;5111109;28;20428;-44
2022/04/26 15:52:07;;;;;;;3.10;2.47;;;16.80;50.50;;;;;;5111809;28;20454;-46
2022/04/26 15:54:33;;;;;;;3.90;2.70;;;16.90;50.50;;;;;;5111612;28;20913;-46
2022/04/26 15:57:01;;;;;;;4.30;2.57;;;16.80;50.50;;;;;;5111437;28;20442;-47
2022/04/26 15:59:28;;;;;;;3.20;2.83;;;16.90;50.60;;;;;;5111048;28;20766;-46
2022/04/26 16:01:54;;;;;;;3.60;2.50;;;17.00;50.90;;;;;;5111725;28;20488;-46
2022/04/26 16:04:21;;;;;;;8.00;2.80;;;16.90;50.90;;;;;;5112078;28;20555;-44
2022/04/26 16:06:48;;;;;;;6.33;2.80;;;17.00;51.10;;;;;;5111425;28;20445;-43
2022/04/26 16:20:31;;;;;;;4.30;3.20;;;17.00;52.00;;;;;;5110378;28;20429;-45
2022/04/26 16:22:58;;;;;;;6.17;3.00;;;16.80;51.90;;;;;;5110889;28;20569;-45
2022/04/26 16:25:25;;;;;;;4.50;2.80;;;16.90;51.90;;;;;;5111341;28;20833;-43
2022/04/26 16:27:53;;;;;;;4.10;2.23;;;17.20;51.90;;;;;;5111427;28;20459;-44
2022/04/26 16:30:20;;;;;;;4.30;3.90;;;16.60;51.50;;;;;;5110670;28;20528;-46
2022/04/26 16:32:47;;;;;;;3.17;2.60;;;16.70;51.30;;;;;;5114739;28;20453;-43
2022/04/26 16:35:14;;;;;;;4.37;2.33;;;17.00;51.70;;;;;;5114795;28;20432;-45
2022/04/26 16:37:41;;;;;;;4.07;2.53;;;16.90;51.70;;;;;;5115133;28;20440;-44
2022/04/26 16:40:10;;;;;;;3.30;2.63;;;17.10;51.80;;;;;;5114582;28;20819;-45
2022/04/26 16:42:36;;;;;;;2.70;2.50;;;16.60;51.20;;;;;;5114224;28;20834;-45
2022/04/26 16:45:05;;;;;;;5.10;2.57;;;16.70;51.20;;;;;;5115393;28;20424;-45
2022/04/26 16:47:32;;;;;;;3.63;3.00;;;16.50;51.20;;;;;;5114689;28;20431;-47
2022/04/26 16:49:58;;;;;;;2.80;2.10;;;16.40;51.40;;;;;;5114490;28;21049;-42
2022/04/26 16:52:25;;;;;;;4.10;2.27;;;16.60;51.40;;;;;;5114878;28;20433;-44
2022/04/26 16:54:52;;;;;;;7.73;3.17;;;16.70;51.40;;;;;;5114491;28;20452;-44
2022/04/26 16:57:18;;;;;;;6.13;2.83;;;16.50;51.50;;;;;;5114325;28;20438;-45
2022/04/26 16:59:45;;;;;;;3.10;2.60;;;17.00;52.00;;;;;;5112697;28;20889;-43
2022/04/26 17:02:14;;;;;;;3.20;1.90;;;16.40;51.20;;;;;;5114226;28;20957;-44
2022/04/26 17:04:41;;;;;;;4.23;3.57;;;16.60;51.30;;;;;;5114673;28;20460;-45
2022/04/26 17:07:07;;;;;;;5.07;3.30;;;16.40;51.40;;;;;;5114424;28;20439;-42
2022/04/26 17:09:34;;;;;;;2.47;2.27;;;16.00;51.20;;;;;;5114293;28;20431;-43